sensor_id;sensor_type;location;lat;lon;timestamp;P1;durP1;ratioP1;P2;durP2;ratioP2
73557;SDS011;61829;53.286;10.434;2023-02-04T00:00:26;1.42;;;0.98;;
73557;SDS011;61829;53.286;10.434;2023-02-04T00:03:13;2.78;;;1.10;;
73557;SDS011;61829;53.286;10.434;2023-02-04T00:05:41;1.48;;;0.90;;
73557;SDS011;61829;53.286;10.434;2023-02-04T00:08:07;3.03;;;1.20;;
73557;SDS011;61829;53.286;10.434;2023-02-04T00:10:33;2.55;;;1.10;;
73557;SDS011;61829;53.286;10.434;2023-02-04T00:12:59;1.98;;;1.00;;
73557;SDS011;61829;53.286;10.434;2023-02-04T00:15:25;2.83;;;1.23;;
73557;SDS011;61829;53.286;10.434;2023-02-04T00:17:50;2.70;;;1.48;;
73557;SDS011;61829;53.286;10.434;2023-02-04T00:20:17;2.38;;;1.10;;
73557;SDS011;61829;53.286;10.434;2023-02-04T00:22:44;3.40;;;1.08;;
73557;SDS011;61829;53.286;10.434;2023-02-04T00:25:10;1.95;;;0.90;;
73557;SDS011;61829;53.286;10.434;2023-02-04T00:27:36;3.70;;;1.10;;
73557;SDS011;61829;53.286;10.434;2023-02-04T00:30:06;3.85;;;1.23;;
73557;SDS011;61829;53.286;10.434;2023-02-04T00:32:32;1.25;;;0.93;;
73557;SDS011;61829;53.286;10.434;2023-02-04T00:34:59;1.77;;;1.00;;
73557;SDS011;61829;53.286;10.434;2023-02-04T00:37:29;4.07;;;1.30;;
73557;SDS011;61829;53.286;10.434;2023-02-04T00:39:55;1.30;;;0.93;;
73557;SDS011;61829;53.286;10.434;2023-02-04T00:42:21;3.75;;;1.10;;
73557;SDS011;61829;53.286;10.434;2023-02-04T00:44:48;3.20;;;1.13;;
73557;SDS011;61829;53.286;10.434;2023-02-04T00:47:13;3.17;;;1.00;;
73557;SDS011;61829;53.286;10.434;2023-02-04T00:49:39;1.63;;;1.17;;
73557;SDS011;61829;53.286;10.434;2023-02-04T00:52:05;2.75;;;1.10;;
73557;SDS011;61829;53.286;10.434;2023-02-04T00:54:31;6.10;;;1.02;;
73557;SDS011;61829;53.286;10.434;2023-02-04T00:56:57;1.70;;;1.00;;
73557;SDS011;61829;53.286;10.434;2023-02-04T00:59:23;1.25;;;0.93;;
73557;SDS011;61829;53.286;10.434;2023-02-04T01:01:49;2.40;;;1.20;;
73557;SDS011;61829;53.286;10.434;2023-02-04T01:04:16;3.35;;;1.10;;
73557;SDS011;61829;53.286;10.434;2023-02-04T01:06:42;2.30;;;1.10;;
73557;SDS011;61829;53.286;10.434;2023-02-04T01:09:08;1.95;;;1.02;;
73557;SDS011;61829;53.286;10.434;2023-02-04T01:11:34;1.90;;;0.90;;
73557;SDS011;61829;53.286;10.434;2023-02-04T01:14:01;4.63;;;1.40;;
73557;SDS011;61829;53.286;10.434;2023-02-04T01:16:26;1.85;;;1.08;;
73557;SDS011;61829;53.286;10.434;2023-02-04T01:18:53;3.65;;;1.33;;
73557;SDS011;61829;53.286;10.434;2023-02-04T01:21:21;2.90;;;1.17;;
73557;SDS011;61829;53.286;10.434;2023-02-04T01:23:47;1.55;;;1.10;;
73557;SDS011;61829;53.286;10.434;2023-02-04T01:26:14;5.00;;;1.20;;
73557;SDS011;61829;53.286;10.434;2023-02-04T01:28:41;2.67;;;1.10;;
73557;SDS011;61829;53.286;10.434;2023-02-04T01:31:07;3.08;;;1.30;;
73557;SDS011;61829;53.286;10.434;2023-02-04T01:33:33;4.20;;;1.02;;
73557;SDS011;61829;53.286;10.434;2023-02-04T01:35:58;2.30;;;1.17;;
73557;SDS011;61829;53.286;10.434;2023-02-04T01:38:24;2.88;;;1.08;;
73557;SDS011;61829;53.286;10.434;2023-02-04T01:40:50;2.33;;;1.15;;
73557;SDS011;61829;53.286;10.434;2023-02-04T01:43:17;1.85;;;1.08;;
73557;SDS011;61829;53.286;10.434;2023-02-04T01:45:44;1.63;;;1.00;;
73557;SDS011;61829;53.286;10.434;2023-02-04T01:48:10;2.55;;;1.30;;
73557;SDS011;61829;53.286;10.434;2023-02-04T01:50:38;4.00;;;1.50;;
73557;SDS011;61829;53.286;10.434;2023-02-04T01:53:04;1.45;;;1.30;;
73557;SDS011;61829;53.286;10.434;2023-02-04T01:55:30;6.00;;;1.40;;
73557;SDS011;61829;53.286;10.434;2023-02-04T01:57:58;2.08;;;1.10;;
73557;SDS011;61829;53.286;10.434;2023-02-04T02:00:25;2.58;;;1.25;;
73557;SDS011;61829;53.286;10.434;2023-02-04T02:02:56;2.63;;;1.65;;
73557;SDS011;61829;53.286;10.434;2023-02-04T02:05:24;1.98;;;1.30;;
73557;SDS011;61829;53.286;10.434;2023-02-04T02:07:55;2.90;;;1.20;;
73557;SDS011;61829;53.286;10.434;2023-02-04T02:10:22;3.40;;;1.35;;
73557;SDS011;61829;53.286;10.434;2023-02-04T02:12:49;1.98;;;1.10;;
73557;SDS011;61829;53.286;10.434;2023-02-04T02:15:15;3.30;;;1.58;;
73557;SDS011;61829;53.286;10.434;2023-02-04T02:17:42;5.35;;;2.65;;
73557;SDS011;61829;53.286;10.434;2023-02-04T02:20:10;5.22;;;1.98;;
73557;SDS011;61829;53.286;10.434;2023-02-04T02:22:48;3.47;;;1.58;;
73557;SDS011;61829;53.286;10.434;2023-02-04T02:25:15;4.20;;;1.52;;
73557;SDS011;61829;53.286;10.434;2023-02-04T02:27:41;3.05;;;1.80;;
73557;SDS011;61829;53.286;10.434;2023-02-04T02:30:08;2.00;;;1.13;;
73557;SDS011;61829;53.286;10.434;2023-02-04T02:32:36;2.75;;;1.63;;
73557;SDS011;61829;53.286;10.434;2023-02-04T02:35:03;3.40;;;1.45;;
73557;SDS011;61829;53.286;10.434;2023-02-04T02:37:29;3.22;;;1.50;;
73557;SDS011;61829;53.286;10.434;2023-02-04T02:39:56;3.70;;;1.67;;
73557;SDS011;61829;53.286;10.434;2023-02-04T02:42:22;2.80;;;1.25;;
73557;SDS011;61829;53.286;10.434;2023-02-04T02:44:48;3.25;;;1.35;;
73557;SDS011;61829;53.286;10.434;2023-02-04T02:47:15;4.38;;;1.60;;
73557;SDS011;61829;53.286;10.434;2023-02-04T02:49:45;3.13;;;1.20;;
73557;SDS011;61829;53.286;10.434;2023-02-04T02:52:13;3.22;;;1.45;;
73557;SDS011;61829;53.286;10.434;2023-02-04T02:54:39;2.13;;;1.23;;
73557;SDS011;61829;53.286;10.434;2023-02-04T02:57:10;2.15;;;1.13;;
73557;SDS011;61829;53.286;10.434;2023-02-04T02:59:38;3.35;;;1.40;;
73557;SDS011;61829;53.286;10.434;2023-02-04T03:02:04;3.35;;;1.50;;
73557;SDS011;61829;53.286;10.434;2023-02-04T03:04:32;6.20;;;1.95;;
73557;SDS011;61829;53.286;10.434;2023-02-04T03:07:02;4.53;;;1.83;;
73557;SDS011;61829;53.286;10.434;2023-02-04T03:09:28;3.15;;;1.60;;
73557;SDS011;61829;53.286;10.434;2023-02-04T03:11:54;3.03;;;1.30;;
73557;SDS011;61829;53.286;10.434;2023-02-04T03:14:21;2.88;;;1.58;;
73557;SDS011;61829;53.286;10.434;2023-02-04T03:16:50;3.13;;;1.63;;
73557;SDS011;61829;53.286;10.434;2023-02-04T03:19:17;2.53;;;1.33;;
73557;SDS011;61829;53.286;10.434;2023-02-04T03:21:43;4.32;;;1.77;;
73557;SDS011;61829;53.286;10.434;2023-02-04T03:24:10;3.50;;;1.50;;
73557;SDS011;61829;53.286;10.434;2023-02-04T03:26:36;4.13;;;1.60;;
73557;SDS011;61829;53.286;10.434;2023-02-04T03:29:07;3.17;;;1.70;;
73557;SDS011;61829;53.286;10.434;2023-02-04T03:31:34;2.47;;;1.60;;
73557;SDS011;61829;53.286;10.434;2023-02-04T03:34:02;2.58;;;1.50;;
73557;SDS011;61829;53.286;10.434;2023-02-04T03:36:28;2.00;;;1.45;;
73557;SDS011;61829;53.286;10.434;2023-02-04T03:38:55;2.97;;;1.60;;
73557;SDS011;61829;53.286;10.434;2023-02-04T03:41:20;3.38;;;1.90;;
73557;SDS011;61829;53.286;10.434;2023-02-04T03:43:46;3.10;;;1.60;;
73557;SDS011;61829;53.286;10.434;2023-02-04T03:46:12;2.72;;;1.70;;
73557;SDS011;61829;53.286;10.434;2023-02-04T03:48:38;3.50;;;1.58;;
73557;SDS011;61829;53.286;10.434;2023-02-04T03:51:04;3.85;;;1.45;;
73557;SDS011;61829;53.286;10.434;2023-02-04T03:53:30;4.35;;;1.40;;
73557;SDS011;61829;53.286;10.434;2023-02-04T03:55:56;7.10;;;1.75;;
73557;SDS011;61829;53.286;10.434;2023-02-04T03:58:22;4.80;;;1.60;;
73557;SDS011;61829;53.286;10.434;2023-02-04T04:00:48;3.70;;;2.40;;
73557;SDS011;61829;53.286;10.434;2023-02-04T04:03:14;7.68;;;5.22;;
73557;SDS011;61829;53.286;10.434;2023-02-04T04:05:40;9.40;;;6.47;;
73557;SDS011;61829;53.286;10.434;2023-02-04T04:08:06;11.18;;;6.53;;
73557;SDS011;61829;53.286;10.434;2023-02-04T04:10:32;9.70;;;4.97;;
73557;SDS011;61829;53.286;10.434;2023-02-04T04:12:58;5.28;;;2.40;;
73557;SDS011;61829;53.286;10.434;2023-02-04T04:15:23;2.80;;;1.90;;
73557;SDS011;61829;53.286;10.434;2023-02-04T04:17:49;2.67;;;1.70;;
73557;SDS011;61829;53.286;10.434;2023-02-04T04:20:15;3.50;;;1.73;;
73557;SDS011;61829;53.286;10.434;2023-02-04T04:22:41;6.05;;;1.80;;
73557;SDS011;61829;53.286;10.434;2023-02-04T04:25:07;3.85;;;1.60;;
73557;SDS011;61829;53.286;10.434;2023-02-04T04:27:33;4.05;;;1.60;;
73557;SDS011;61829;53.286;10.434;2023-02-04T04:29:59;4.85;;;1.77;;
73557;SDS011;61829;53.286;10.434;2023-02-04T04:32:25;3.13;;;1.75;;
73557;SDS011;61829;53.286;10.434;2023-02-04T04:34:51;3.28;;;1.67;;
73557;SDS011;61829;53.286;10.434;2023-02-04T04:37:17;2.60;;;1.40;;
73557;SDS011;61829;53.286;10.434;2023-02-04T04:39:45;4.20;;;1.70;;
73557;SDS011;61829;53.286;10.434;2023-02-04T04:42:11;3.70;;;1.58;;
73557;SDS011;61829;53.286;10.434;2023-02-04T04:44:36;4.45;;;1.58;;
73557;SDS011;61829;53.286;10.434;2023-02-04T04:47:02;4.53;;;1.80;;
73557;SDS011;61829;53.286;10.434;2023-02-04T04:49:28;3.20;;;1.70;;
73557;SDS011;61829;53.286;10.434;2023-02-04T04:51:54;3.15;;;1.60;;
73557;SDS011;61829;53.286;10.434;2023-02-04T04:54:19;3.25;;;1.40;;
73557;SDS011;61829;53.286;10.434;2023-02-04T04:56:45;1.90;;;1.20;;
73557;SDS011;61829;53.286;10.434;2023-02-04T04:59:11;3.80;;;1.80;;
73557;SDS011;61829;53.286;10.434;2023-02-04T05:01:37;2.08;;;1.45;;
73557;SDS011;61829;53.286;10.434;2023-02-04T05:04:03;3.50;;;1.42;;
73557;SDS011;61829;53.286;10.434;2023-02-04T05:06:29;2.70;;;1.30;;
73557;SDS011;61829;53.286;10.434;2023-02-04T05:08:55;3.70;;;1.52;;
73557;SDS011;61829;53.286;10.434;2023-02-04T05:11:21;2.40;;;1.40;;
73557;SDS011;61829;53.286;10.434;2023-02-04T05:13:46;5.60;;;1.67;;
73557;SDS011;61829;53.286;10.434;2023-02-04T05:16:12;4.32;;;1.75;;
73557;SDS011;61829;53.286;10.434;2023-02-04T05:18:39;2.72;;;1.55;;
73557;SDS011;61829;53.286;10.434;2023-02-04T05:21:06;2.92;;;1.52;;
73557;SDS011;61829;53.286;10.434;2023-02-04T05:23:33;4.13;;;1.67;;
73557;SDS011;61829;53.286;10.434;2023-02-04T05:25:59;2.03;;;1.38;;
73557;SDS011;61829;53.286;10.434;2023-02-04T05:28:24;3.72;;;1.95;;
73557;SDS011;61829;53.286;10.434;2023-02-04T05:30:51;4.88;;;1.73;;
73557;SDS011;61829;53.286;10.434;2023-02-04T05:33:17;2.42;;;1.40;;
73557;SDS011;61829;53.286;10.434;2023-02-04T05:35:43;2.78;;;1.38;;
73557;SDS011;61829;53.286;10.434;2023-02-04T05:38:08;4.38;;;1.60;;
73557;SDS011;61829;53.286;10.434;2023-02-04T05:40:34;4.15;;;1.55;;
73557;SDS011;61829;53.286;10.434;2023-02-04T05:43:00;3.75;;;1.58;;
73557;SDS011;61829;53.286;10.434;2023-02-04T05:45:26;3.03;;;1.77;;
73557;SDS011;61829;53.286;10.434;2023-02-04T05:47:52;3.35;;;1.52;;
73557;SDS011;61829;53.286;10.434;2023-02-04T05:50:18;2.72;;;1.55;;
73557;SDS011;61829;53.286;10.434;2023-02-04T05:52:43;5.10;;;1.70;;
73557;SDS011;61829;53.286;10.434;2023-02-04T05:55:10;3.53;;;1.85;;
73557;SDS011;61829;53.286;10.434;2023-02-04T05:57:36;3.95;;;1.70;;
73557;SDS011;61829;53.286;10.434;2023-02-04T06:00:04;4.65;;;1.73;;
73557;SDS011;61829;53.286;10.434;2023-02-04T06:02:31;3.60;;;1.63;;
73557;SDS011;61829;53.286;10.434;2023-02-04T06:04:57;3.38;;;1.77;;
73557;SDS011;61829;53.286;10.434;2023-02-04T06:07:24;3.47;;;1.60;;
73557;SDS011;61829;53.286;10.434;2023-02-04T06:09:50;3.38;;;1.55;;
73557;SDS011;61829;53.286;10.434;2023-02-04T06:12:15;2.67;;;1.63;;
73557;SDS011;61829;53.286;10.434;2023-02-04T06:14:42;2.35;;;1.38;;
73557;SDS011;61829;53.286;10.434;2023-02-04T06:17:07;2.45;;;1.55;;
73557;SDS011;61829;53.286;10.434;2023-02-04T06:19:33;3.92;;;1.50;;
73557;SDS011;61829;53.286;10.434;2023-02-04T06:21:59;2.88;;;1.67;;
73557;SDS011;61829;53.286;10.434;2023-02-04T06:24:25;2.60;;;1.33;;
73557;SDS011;61829;53.286;10.434;2023-02-04T06:26:53;1.70;;;1.20;;
73557;SDS011;61829;53.286;10.434;2023-02-04T06:29:21;3.72;;;1.50;;
73557;SDS011;61829;53.286;10.434;2023-02-04T06:31:47;3.08;;;1.58;;
73557;SDS011;61829;53.286;10.434;2023-02-04T06:34:14;2.75;;;1.50;;
73557;SDS011;61829;53.286;10.434;2023-02-04T06:36:40;2.88;;;1.52;;
73557;SDS011;61829;53.286;10.434;2023-02-04T06:39:08;2.92;;;1.88;;
73557;SDS011;61829;53.286;10.434;2023-02-04T06:41:34;3.20;;;1.38;;
73557;SDS011;61829;53.286;10.434;2023-02-04T06:43:59;3.95;;;1.77;;
73557;SDS011;61829;53.286;10.434;2023-02-04T06:46:25;3.83;;;1.90;;
73557;SDS011;61829;53.286;10.434;2023-02-04T06:48:51;4.15;;;1.70;;
73557;SDS011;61829;53.286;10.434;2023-02-04T06:51:17;3.65;;;1.70;;
73557;SDS011;61829;53.286;10.434;2023-02-04T06:53:42;5.22;;;1.80;;
73557;SDS011;61829;53.286;10.434;2023-02-04T06:56:10;3.67;;;1.77;;
73557;SDS011;61829;53.286;10.434;2023-02-04T06:58:36;2.88;;;1.70;;
73557;SDS011;61829;53.286;10.434;2023-02-04T07:01:03;3.00;;;1.65;;
73557;SDS011;61829;53.286;10.434;2023-02-04T07:03:33;4.43;;;1.70;;
73557;SDS011;61829;53.286;10.434;2023-02-04T07:05:58;3.40;;;1.80;;
73557;SDS011;61829;53.286;10.434;2023-02-04T07:08:24;3.03;;;1.67;;
73557;SDS011;61829;53.286;10.434;2023-02-04T07:10:50;4.03;;;1.67;;
73557;SDS011;61829;53.286;10.434;2023-02-04T07:13:16;4.20;;;1.83;;
73557;SDS011;61829;53.286;10.434;2023-02-04T07:15:44;2.53;;;1.80;;
73557;SDS011;61829;53.286;10.434;2023-02-04T07:18:10;5.00;;;1.90;;
73557;SDS011;61829;53.286;10.434;2023-02-04T07:20:38;4.28;;;2.40;;
73557;SDS011;61829;53.286;10.434;2023-02-04T07:23:10;4.15;;;2.10;;
73557;SDS011;61829;53.286;10.434;2023-02-04T07:25:35;2.95;;;1.95;;
73557;SDS011;61829;53.286;10.434;2023-02-04T07:28:03;4.28;;;2.20;;
73557;SDS011;61829;53.286;10.434;2023-02-04T07:30:30;5.15;;;2.75;;
73557;SDS011;61829;53.286;10.434;2023-02-04T07:32:57;6.20;;;2.60;;
73557;SDS011;61829;53.286;10.434;2023-02-04T07:35:23;5.35;;;2.83;;
73557;SDS011;61829;53.286;10.434;2023-02-04T07:37:49;4.38;;;2.53;;
73557;SDS011;61829;53.286;10.434;2023-02-04T07:40:15;4.82;;;2.75;;
73557;SDS011;61829;53.286;10.434;2023-02-04T07:42:41;3.88;;;2.15;;
73557;SDS011;61829;53.286;10.434;2023-02-04T07:45:06;5.32;;;2.17;;
73557;SDS011;61829;53.286;10.434;2023-02-04T07:47:33;3.78;;;2.20;;
73557;SDS011;61829;53.286;10.434;2023-02-04T07:49:59;7.35;;;2.45;;
73557;SDS011;61829;53.286;10.434;2023-02-04T07:52:24;3.58;;;2.10;;
73557;SDS011;61829;53.286;10.434;2023-02-04T07:54:50;2.90;;;1.95;;
73557;SDS011;61829;53.286;10.434;2023-02-04T07:57:17;4.05;;;2.13;;
73557;SDS011;61829;53.286;10.434;2023-02-04T07:59:44;3.40;;;2.03;;
73557;SDS011;61829;53.286;10.434;2023-02-04T08:02:10;3.72;;;2.10;;
73557;SDS011;61829;53.286;10.434;2023-02-04T08:04:36;5.30;;;2.33;;
73557;SDS011;61829;53.286;10.434;2023-02-04T08:07:03;3.55;;;2.10;;
73557;SDS011;61829;53.286;10.434;2023-02-04T08:09:28;4.05;;;2.33;;
73557;SDS011;61829;53.286;10.434;2023-02-04T08:11:54;5.95;;;2.88;;
73557;SDS011;61829;53.286;10.434;2023-02-04T08:14:20;6.03;;;2.38;;
73557;SDS011;61829;53.286;10.434;2023-02-04T08:16:46;12.93;;;4.78;;
73557;SDS011;61829;53.286;10.434;2023-02-04T08:19:12;17.30;;;5.88;;
73557;SDS011;61829;53.286;10.434;2023-02-04T08:21:44;19.48;;;6.00;;
73557;SDS011;61829;53.286;10.434;2023-02-04T08:24:10;18.52;;;5.10;;
73557;SDS011;61829;53.286;10.434;2023-02-04T08:26:38;15.27;;;5.80;;
73557;SDS011;61829;53.286;10.434;2023-02-04T08:29:04;11.93;;;3.90;;
73557;SDS011;61829;53.286;10.434;2023-02-04T08:31:30;5.57;;;3.00;;
73557;SDS011;61829;53.286;10.434;2023-02-04T08:33:56;4.45;;;2.40;;
73557;SDS011;61829;53.286;10.434;2023-02-04T08:36:23;4.00;;;2.33;;
73557;SDS011;61829;53.286;10.434;2023-02-04T08:38:50;3.47;;;1.95;;
73557;SDS011;61829;53.286;10.434;2023-02-04T08:41:16;3.15;;;1.67;;
73557;SDS011;61829;53.286;10.434;2023-02-04T08:43:42;3.83;;;1.75;;
73557;SDS011;61829;53.286;10.434;2023-02-04T08:46:08;2.55;;;1.60;;
73557;SDS011;61829;53.286;10.434;2023-02-04T08:48:34;3.90;;;1.92;;
73557;SDS011;61829;53.286;10.434;2023-02-04T08:51:00;4.22;;;1.95;;
73557;SDS011;61829;53.286;10.434;2023-02-04T08:53:25;4.38;;;2.05;;
73557;SDS011;61829;53.286;10.434;2023-02-04T08:55:51;3.80;;;1.70;;
73557;SDS011;61829;53.286;10.434;2023-02-04T08:58:17;3.75;;;1.65;;
73557;SDS011;61829;53.286;10.434;2023-02-04T09:00:43;2.75;;;1.55;;
73557;SDS011;61829;53.286;10.434;2023-02-04T09:03:08;3.40;;;1.77;;
73557;SDS011;61829;53.286;10.434;2023-02-04T09:05:34;5.25;;;2.10;;
73557;SDS011;61829;53.286;10.434;2023-02-04T09:08:00;5.55;;;1.98;;
73557;SDS011;61829;53.286;10.434;2023-02-04T09:10:26;4.10;;;1.60;;
73557;SDS011;61829;53.286;10.434;2023-02-04T09:12:52;7.63;;;1.73;;
73557;SDS011;61829;53.286;10.434;2023-02-04T09:15:21;2.47;;;1.33;;
73557;SDS011;61829;53.286;10.434;2023-02-04T09:17:48;2.67;;;1.40;;
73557;SDS011;61829;53.286;10.434;2023-02-04T09:20:15;2.85;;;2.00;;
73557;SDS011;61829;53.286;10.434;2023-02-04T09:22:41;3.83;;;1.80;;
73557;SDS011;61829;53.286;10.434;2023-02-04T09:25:07;4.20;;;1.65;;
73557;SDS011;61829;53.286;10.434;2023-02-04T09:27:32;4.75;;;1.67;;
73557;SDS011;61829;53.286;10.434;2023-02-04T09:29:58;3.30;;;1.80;;
73557;SDS011;61829;53.286;10.434;2023-02-04T09:32:24;3.08;;;1.70;;
73557;SDS011;61829;53.286;10.434;2023-02-04T09:34:51;3.05;;;1.40;;
73557;SDS011;61829;53.286;10.434;2023-02-04T09:37:16;4.50;;;1.83;;
73557;SDS011;61829;53.286;10.434;2023-02-04T09:39:42;3.22;;;1.70;;
73557;SDS011;61829;53.286;10.434;2023-02-04T09:42:14;2.55;;;1.40;;
73557;SDS011;61829;53.286;10.434;2023-02-04T09:44:41;2.75;;;1.42;;
73557;SDS011;61829;53.286;10.434;2023-02-04T09:47:10;5.03;;;1.85;;
73557;SDS011;61829;53.286;10.434;2023-02-04T09:49:40;2.15;;;1.20;;
73557;SDS011;61829;53.286;10.434;2023-02-04T09:52:11;3.58;;;1.30;;
73557;SDS011;61829;53.286;10.434;2023-02-04T09:54:40;3.70;;;1.45;;
73557;SDS011;61829;53.286;10.434;2023-02-04T09:57:13;2.33;;;1.55;;
73557;SDS011;61829;53.286;10.434;2023-02-04T09:59:41;4.30;;;1.58;;
73557;SDS011;61829;53.286;10.434;2023-02-04T10:02:19;2.55;;;1.63;;
73557;SDS011;61829;53.286;10.434;2023-02-04T10:04:47;1.73;;;1.30;;
73557;SDS011;61829;53.286;10.434;2023-02-04T10:07:14;1.95;;;1.30;;
73557;SDS011;61829;53.286;10.434;2023-02-04T10:09:46;3.00;;;1.40;;
73557;SDS011;61829;53.286;10.434;2023-02-04T10:12:13;2.35;;;1.30;;
73557;SDS011;61829;53.286;10.434;2023-02-04T10:14:39;3.97;;;1.40;;
73557;SDS011;61829;53.286;10.434;2023-02-04T10:17:06;4.55;;;1.60;;
73557;SDS011;61829;53.286;10.434;2023-02-04T10:19:33;2.35;;;1.00;;
73557;SDS011;61829;53.286;10.434;2023-02-04T10:21:59;2.75;;;1.30;;
73557;SDS011;61829;53.286;10.434;2023-02-04T10:24:27;3.83;;;1.48;;
73557;SDS011;61829;53.286;10.434;2023-02-04T10:29:31;1.98;;;1.27;;
73557;SDS011;61829;53.286;10.434;2023-02-04T10:31:57;2.25;;;1.10;;
73557;SDS011;61829;53.286;10.434;2023-02-04T10:34:23;2.72;;;1.10;;
73557;SDS011;61829;53.286;10.434;2023-02-04T10:36:56;3.47;;;1.05;;
73557;SDS011;61829;53.286;10.434;2023-02-04T10:39:26;1.67;;;1.05;;
73557;SDS011;61829;53.286;10.434;2023-02-04T10:41:56;2.40;;;1.15;;
73557;SDS011;61829;53.286;10.434;2023-02-04T10:44:30;2.15;;;1.70;;
73557;SDS011;61829;53.286;10.434;2023-02-04T10:47:04;4.40;;;1.30;;
73557;SDS011;61829;53.286;10.434;2023-02-04T10:49:33;2.70;;;1.10;;
73557;SDS011;61829;53.286;10.434;2023-02-04T10:51:59;5.13;;;1.10;;
73557;SDS011;61829;53.286;10.434;2023-02-04T10:54:28;2.25;;;1.27;;
73557;SDS011;61829;53.286;10.434;2023-02-04T10:59:47;4.72;;;1.05;;
73557;SDS011;61829;53.286;10.434;2023-02-04T11:05:12;3.40;;;1.10;;
73557;SDS011;61829;53.286;10.434;2023-02-04T11:07:41;3.50;;;1.10;;
73557;SDS011;61829;53.286;10.434;2023-02-04T11:10:15;1.27;;;0.80;;
73557;SDS011;61829;53.286;10.434;2023-02-04T11:13:02;2.85;;;1.08;;
73557;SDS011;61829;53.286;10.434;2023-02-04T11:15:40;1.80;;;0.88;;
73557;SDS011;61829;53.286;10.434;2023-02-04T11:18:27;4.40;;;1.10;;
73557;SDS011;61829;53.286;10.434;2023-02-04T11:20:57;2.13;;;0.80;;
73557;SDS011;61829;53.286;10.434;2023-02-04T11:26:01;1.40;;;0.80;;
73557;SDS011;61829;53.286;10.434;2023-02-04T11:28:27;2.85;;;1.27;;
73557;SDS011;61829;53.286;10.434;2023-02-04T11:30:59;1.85;;;1.10;;
73557;SDS011;61829;53.286;10.434;2023-02-04T11:36:05;1.85;;;1.10;;
73557;SDS011;61829;53.286;10.434;2023-02-04T11:38:36;1.23;;;0.80;;
73557;SDS011;61829;53.286;10.434;2023-02-04T11:41:03;2.75;;;0.80;;
73557;SDS011;61829;53.286;10.434;2023-02-04T11:43:33;2.08;;;1.25;;
73557;SDS011;61829;53.286;10.434;2023-02-04T11:46:12;2.15;;;1.00;;
73557;SDS011;61829;53.286;10.434;2023-02-04T11:48:40;1.50;;;0.80;;
73557;SDS011;61829;53.286;10.434;2023-02-04T11:51:14;1.77;;;0.98;;
73557;SDS011;61829;53.286;10.434;2023-02-04T11:53:42;1.17;;;1.00;;
73557;SDS011;61829;53.286;10.434;2023-02-04T11:56:21;1.23;;;0.80;;
73557;SDS011;61829;53.286;10.434;2023-02-04T11:58:48;3.15;;;1.15;;
73557;SDS011;61829;53.286;10.434;2023-02-04T12:01:18;1.33;;;1.00;;
73557;SDS011;61829;53.286;10.434;2023-02-04T12:03:47;1.05;;;0.60;;
73557;SDS011;61829;53.286;10.434;2023-02-04T12:06:26;3.28;;;1.20;;
73557;SDS011;61829;53.286;10.434;2023-02-04T12:11:58;2.83;;;1.02;;
73557;SDS011;61829;53.286;10.434;2023-02-04T12:14:32;1.55;;;0.80;;
73557;SDS011;61829;53.286;10.434;2023-02-04T12:17:15;3.58;;;1.05;;
73557;SDS011;61829;53.286;10.434;2023-02-04T12:19:42;2.97;;;1.00;;
73557;SDS011;61829;53.286;10.434;2023-02-04T12:22:08;2.22;;;0.90;;
73557;SDS011;61829;53.286;10.434;2023-02-04T12:24:34;4.28;;;0.90;;
73557;SDS011;61829;53.286;10.434;2023-02-04T12:27:00;2.28;;;1.00;;
73557;SDS011;61829;53.286;10.434;2023-02-04T12:29:28;1.30;;;0.77;;
73557;SDS011;61829;53.286;10.434;2023-02-04T12:31:54;1.65;;;0.93;;
73557;SDS011;61829;53.286;10.434;2023-02-04T12:34:20;1.67;;;0.80;;
73557;SDS011;61829;53.286;10.434;2023-02-04T12:36:46;2.20;;;1.00;;
73557;SDS011;61829;53.286;10.434;2023-02-04T12:39:12;2.70;;;0.82;;
73557;SDS011;61829;53.286;10.434;2023-02-04T12:41:38;2.25;;;1.15;;
73557;SDS011;61829;53.286;10.434;2023-02-04T12:44:03;2.83;;;0.90;;
73557;SDS011;61829;53.286;10.434;2023-02-04T12:46:29;3.40;;;1.20;;
73557;SDS011;61829;53.286;10.434;2023-02-04T12:48:58;2.78;;;1.10;;
73557;SDS011;61829;53.286;10.434;2023-02-04T12:51:24;5.55;;;2.75;;
73557;SDS011;61829;53.286;10.434;2023-02-04T12:53:52;3.38;;;2.33;;
73557;SDS011;61829;53.286;10.434;2023-02-04T12:56:21;1.77;;;0.77;;
73557;SDS011;61829;53.286;10.434;2023-02-04T12:58:50;1.42;;;0.80;;
73557;SDS011;61829;53.286;10.434;2023-02-04T13:01:16;3.00;;;0.95;;
73557;SDS011;61829;53.286;10.434;2023-02-04T13:03:43;1.10;;;1.00;;
73557;SDS011;61829;53.286;10.434;2023-02-04T13:06:09;2.40;;;0.90;;
73557;SDS011;61829;53.286;10.434;2023-02-04T13:08:35;2.08;;;1.10;;
73557;SDS011;61829;53.286;10.434;2023-02-04T13:11:01;1.35;;;0.80;;
73557;SDS011;61829;53.286;10.434;2023-02-04T13:13:26;3.03;;;1.00;;
73557;SDS011;61829;53.286;10.434;2023-02-04T13:15:53;1.90;;;0.90;;
73557;SDS011;61829;53.286;10.434;2023-02-04T13:18:18;3.22;;;1.90;;
73557;SDS011;61829;53.286;10.434;2023-02-04T13:20:44;1.55;;;0.93;;
73557;SDS011;61829;53.286;10.434;2023-02-04T13:23:10;1.05;;;0.82;;
73557;SDS011;61829;53.286;10.434;2023-02-04T13:25:36;1.90;;;0.90;;
73557;SDS011;61829;53.286;10.434;2023-02-04T13:28:02;1.52;;;0.90;;
73557;SDS011;61829;53.286;10.434;2023-02-04T13:30:28;1.27;;;0.90;;
73557;SDS011;61829;53.286;10.434;2023-02-04T13:32:53;1.00;;;0.80;;
73557;SDS011;61829;53.286;10.434;2023-02-04T13:35:19;1.60;;;0.90;;
73557;SDS011;61829;53.286;10.434;2023-02-04T13:37:45;3.00;;;1.00;;
73557;SDS011;61829;53.286;10.434;2023-02-04T13:40:11;1.00;;;0.68;;
73557;SDS011;61829;53.286;10.434;2023-02-04T13:42:37;1.27;;;0.98;;
73557;SDS011;61829;53.286;10.434;2023-02-04T13:45:03;2.22;;;1.05;;
73557;SDS011;61829;53.286;10.434;2023-02-04T13:47:32;2.40;;;1.10;;
73557;SDS011;61829;53.286;10.434;2023-02-04T13:49:58;1.65;;;1.10;;
73557;SDS011;61829;53.286;10.434;2023-02-04T13:52:26;1.20;;;1.00;;
73557;SDS011;61829;53.286;10.434;2023-02-04T13:54:53;3.58;;;0.98;;
73557;SDS011;61829;53.286;10.434;2023-02-04T13:57:19;1.00;;;0.80;;
73557;SDS011;61829;53.286;10.434;2023-02-04T13:59:45;2.00;;;0.95;;
73557;SDS011;61829;53.286;10.434;2023-02-04T14:02:13;1.45;;;0.88;;
73557;SDS011;61829;53.286;10.434;2023-02-04T14:04:39;3.10;;;0.90;;
73557;SDS011;61829;53.286;10.434;2023-02-04T14:07:08;2.08;;;1.00;;
73557;SDS011;61829;53.286;10.434;2023-02-04T14:09:34;1.40;;;1.00;;
73557;SDS011;61829;53.286;10.434;2023-02-04T14:12:00;1.08;;;0.80;;
73557;SDS011;61829;53.286;10.434;2023-02-04T14:14:26;1.20;;;0.75;;
73557;SDS011;61829;53.286;10.434;2023-02-04T14:16:52;2.70;;;0.95;;
73557;SDS011;61829;53.286;10.434;2023-02-04T14:19:18;2.30;;;0.98;;
73557;SDS011;61829;53.286;10.434;2023-02-04T14:21:43;1.60;;;0.90;;
73557;SDS011;61829;53.286;10.434;2023-02-04T14:24:10;1.13;;;0.95;;
73557;SDS011;61829;53.286;10.434;2023-02-04T14:26:36;2.35;;;1.00;;
73557;SDS011;61829;53.286;10.434;2023-02-04T14:29:02;2.65;;;1.00;;
73557;SDS011;61829;53.286;10.434;2023-02-04T14:31:28;2.40;;;0.90;;
73557;SDS011;61829;53.286;10.434;2023-02-04T14:33:54;1.23;;;0.88;;
73557;SDS011;61829;53.286;10.434;2023-02-04T14:36:20;2.42;;;1.00;;
73557;SDS011;61829;53.286;10.434;2023-02-04T14:38:46;2.67;;;1.20;;
73557;SDS011;61829;53.286;10.434;2023-02-04T14:41:12;2.55;;;1.00;;
73557;SDS011;61829;53.286;10.434;2023-02-04T14:43:40;1.52;;;1.00;;
73557;SDS011;61829;53.286;10.434;2023-02-04T14:46:06;3.80;;;1.08;;
73557;SDS011;61829;53.286;10.434;2023-02-04T14:48:32;3.30;;;1.65;;